KSLN

Salina Regional Airport

Salina, Kansas, USA
METAR KSLN 201302Z 16007KT 8SM SCT012 04/03 A2978 RMK AO2 T00390033
Observed Flight Rules
Jan-20 @ 13:02 UTC (10 minutes ago) Visual Flight Rules
Wind Visibility Clouds
160° at 7 knots 8 miles
  • Scattered at 1,200' AGL
Temperatures Readings
Current 4°C / 39°F
Dewpoint 3°C / 37°F
Humidity 93%
Altimeter 29.78" Hg
Pressure 1008 hPa
Elevation 385
METAR KSLN 201302Z 16007KT 8SM SCT012 04/03 A2978 RMK AO2 T00390033
Observed Flight Rules
Jan-20 @ 13:02 UTC
(10 minutes ago)
VFR
Wind Visibility
160° at 7 knots 8 miles
Clouds
  • Scattered at 1,200' AGL
Temperature Dewpoint
4°C / 39°F 3°C / 37°F
Humidity Altimeter Pressure
93% 29.78" Hg 1008 hPa